Time;durP1;ratioP1;P1;durP2;ratioP2;P2;SDS_P1;SDS_P2;PMS_P1;PMS_P2;Temp;Humidity;BMP_temperature;BMP_pressure;BME280_temperature;BME280_humidity;BME280_pressure;Samples;Min_cycle;Max_cycle;Signal;HPM_P1;HPM_P2
2023/01/13 00:02:22;;;;;;;6.68;4.25;;;;;;;-6.08;72.75;100033.38;7347175;19;20007;-71
2023/01/13 00:04:46;;;;;;;7.97;5.50;;;;;;;-5.97;72.56;100027.34;7348037;19;20014;-71
2023/01/13 00:07:11;;;;;;;10.45;6.50;;;;;;;-6.12;72.78;100016.09;7347328;19;20003;-70
2023/01/13 00:09:36;;;;;;;5.68;3.63;;;;;;;-5.89;72.74;100009.19;7347758;19;20037;-70
2023/01/13 00:12:00;;;;;;;9.50;4.55;;;;;;;-5.89;72.49;100001.41;7346911;19;20457;-69
2023/01/13 00:14:28;;;;;;;8.82;4.68;;;;;;;-5.99;72.38;100010.91;7345312;19;20010;-73
2023/01/13 00:16:53;;;;;;;7.28;5.07;;;;;;;-5.99;72.64;100017.84;7348593;19;20006;-73
2023/01/13 00:19:17;;;;;;;7.03;4.35;;;;;;;-5.79;72.17;100007.41;7350111;19;20025;-74
2023/01/13 00:21:42;;;;;;;15.73;7.35;;;;;;;-6.03;72.51;100010.91;7347978;19;20062;-71
2023/01/13 00:24:09;;;;;;;8.35;5.53;;;;;;;-6.08;72.98;100023.00;7350612;19;20015;-71
2023/01/13 00:26:34;;;;;;;6.30;4.45;;;;;;;-5.99;72.94;100012.66;7350168;19;20078;-72
2023/01/13 00:29:00;;;;;;;10.57;3.90;;;;;;;-5.57;72.30;100007.41;7350497;19;20018;-71
2023/01/13 00:31:27;;;;;;;8.27;5.75;;;;;;;-5.85;72.13;100009.13;7347253;19;20031;-71
2023/01/13 00:33:52;;;;;;;9.35;4.88;;;;;;;-5.75;72.39;100004.81;7346570;19;20007;-73
2023/01/13 00:36:19;;;;;;;10.65;4.95;;;;;;;-6.08;73.08;100007.41;7350034;19;20018;-72
2023/01/13 00:38:46;;;;;;;6.68;4.70;;;;;;;-5.94;72.72;100003.13;7348969;19;20035;-72
2023/01/13 00:41:14;;;;;;;5.47;2.67;;;;;;;-5.89;73.13;99988.44;7346581;19;20739;-73
2023/01/13 00:43:40;;;;;;;8.98;5.30;;;;;;;-5.96;73.15;100017.81;7345602;19;20033;-73
2023/01/13 00:46:07;;;;;;;5.50;3.97;;;;;;;-5.84;72.84;99999.63;7345937;19;20050;-71
2023/01/13 00:48:32;;;;;;;14.88;5.93;;;;;;;-5.89;73.13;100004.88;7345390;19;20025;-72
2023/01/13 00:51:03;;;;;;;6.68;3.03;;;;;;;-5.93;73.53;100002.25;7346988;19;20051;-73
2023/01/13 00:53:31;;;;;;;7.25;4.75;;;;;;;-5.91;73.15;99990.16;7346413;19;20018;-73
2023/01/13 00:56:08;;;;;;;8.85;5.50;;;;;;;-5.87;72.95;99987.50;7348556;19;20029;-75
2023/01/13 00:58:34;;;;;;;11.07;5.32;;;;;;;-5.79;72.54;99982.31;7351294;19;20147;-74
2023/01/13 01:01:00;;;;;;;9.45;4.43;;;;;;;-5.77;72.76;99982.34;7349283;19;20007;-72
2023/01/13 01:03:25;;;;;;;3.13;2.83;;;;;;;-5.77;72.81;99978.00;7346185;19;20007;-74
2023/01/13 01:05:50;;;;;;;18.67;4.85;;;;;;;-5.69;72.64;99973.66;7344858;19;20002;-73
2023/01/13 01:08:14;;;;;;;11.63;5.50;;;;;;;-5.79;72.41;99964.16;7345794;19;20025;-71
2023/01/13 01:10:39;;;;;;;6.53;4.25;;;;;;;-5.39;72.16;99954.56;7346939;19;20034;-76
2023/01/13 01:13:04;;;;;;;12.13;5.93;;;;;;;-5.64;71.67;99958.06;7348250;19;20014;-72
2023/01/13 01:15:28;;;;;;;7.00;4.70;;;;;;;-5.79;72.04;99952.91;7348322;19;20122;-73
2023/01/13 01:17:53;;;;;;;8.35;5.15;;;;;;;-6.01;73.02;99952.09;7352879;19;20014;-73
2023/01/13 01:20:18;;;;;;;9.80;4.90;;;;;;;-5.99;73.04;99959.00;7350958;19;20006;-71
2023/01/13 01:22:42;;;;;;;11.50;5.57;;;;;;;-5.93;73.22;99965.91;7346149;19;20094;-73
2023/01/13 01:25:08;;;;;;;6.82;4.13;;;;;;;-5.87;73.09;99950.31;7346873;19;20009;-72
2023/01/13 01:27:32;;;;;;;3.83;2.95;;;;;;;-5.54;72.54;99959.81;7346519;19;20017;-73
2023/01/13 01:29:57;;;;;;;9.68;5.97;;;;;;;-5.91;72.88;99944.28;7347307;19;20011;-74
2023/01/13 01:32:22;;;;;;;11.18;4.72;;;;;;;-5.87;73.09;99948.56;7345893;19;20015;-72
2023/01/13 01:34:47;;;;;;;7.47;4.55;;;;;;;-5.71;72.51;99951.16;7344878;19;20014;-72
2023/01/13 01:37:11;;;;;;;9.82;5.95;;;;;;;-5.79;72.68;99945.97;7346307;19;20017;-70
2023/01/13 01:39:36;;;;;;;9.20;5.78;;;;;;;-5.92;73.21;99955.53;7345997;19;20034;-69
2023/01/13 01:45:02;;;;;;;9.07;4.55;;;;;;;-5.93;73.45;99942.56;7346195;19;20018;-71
2023/01/13 01:47:29;;;;;;;;;;;;;;;-5.78;73.04;99944.25;7344719;19;20003;-70
2023/01/13 01:49:56;;;;;;;5.93;3.47;;;;;;;-5.86;73.18;99931.25;7345615;19;19917;-71
2023/01/13 01:52:43;;;;;;;4.72;3.05;;;;;;;-5.66;72.79;99921.72;7344191;19;20026;-69
2023/01/13 01:55:20;;;;;;;8.80;6.10;;;;;;;-5.91;73.60;99913.13;7343097;19;20421;-70
2023/01/13 01:57:56;;;;;;;6.85;4.00;;;;;;;-6.05;74.28;99904.50;7345828;19;19999;-70
2023/01/13 02:00:21;;;;;;;9.93;5.28;;;;;;;-6.05;74.36;99914.00;7343693;19;20053;-70
2023/01/13 02:02:48;;;;;;;5.13;3.15;;;;;;;-6.01;74.63;99915.75;7345371;19;20104;-71
2023/01/13 02:05:13;;;;;;;2.17;1.98;;;;;;;-5.84;74.53;99900.97;7346689;19;20048;-70
2023/01/13 02:07:40;;;;;;;3.83;1.48;;;;;;;-5.67;74.12;99904.41;7349844;19;20018;-70
2023/01/13 02:10:08;;;;;;;10.63;5.30;;;;;;;-5.93;74.53;99925.25;7347791;19;20750;-70
2023/01/13 02:12:33;;;;;;;4.15;3.33;;;;;;;-5.64;74.01;99894.00;7348374;19;20060;-72
2023/01/13 02:15:07;;;;;;;7.10;4.78;;;;;;;-5.74;74.02;99897.50;7347102;19;20038;-73
2023/01/13 02:17:54;;;;;;;7.55;4.53;;;;;;;-5.83;73.81;99887.13;7344823;19;20044;-73
2023/01/13 02:20:21;;;;;;;4.63;2.67;;;;;;;-5.95;74.31;99888.03;7345187;19;20011;-74
2023/01/13 02:26:18;;;;;;;5.75;3.90;;;;;;;-5.82;74.43;99907.03;7342887;19;20015;-74
2023/01/13 02:31:42;;;;;;;6.55;3.97;;;;;;;-5.79;74.01;99896.66;7341227;19;20349;-69
2023/01/13 02:34:13;;;;;;;9.15;6.05;;;;;;;-5.89;73.72;99900.16;7340809;19;20018;-73
2023/01/13 02:36:53;;;;;;;6.65;2.58;;;;;;;-5.77;73.90;99904.44;7339327;19;20006;-73
2023/01/13 02:39:28;;;;;;;13.65;6.00;;;;;;;-6.01;74.38;99905.38;7344127;19;20044;-73
2023/01/13 02:45:16;;;;;;;10.88;5.90;;;;;;;-5.81;73.81;99913.09;7343762;19;20018;-75
2023/01/13 02:47:46;;;;;;;12.50;6.50;;;;;;;-5.88;73.87;99909.69;7342881;19;20014;-80
2023/01/13 02:50:18;;;;;;;10.90;5.35;;;;;;;-5.98;73.99;99921.78;7344655;19;20018;-77
2023/01/13 02:52:48;;;;;;;9.57;5.45;;;;;;;-5.99;74.13;99912.28;7343065;19;20007;-78
2023/01/13 02:55:17;;;;;;;5.97;3.83;;;;;;;-5.84;74.33;99919.16;7345441;19;20045;-81
2023/01/13 02:57:43;;;;;;;5.45;4.60;;;;;;;-5.82;73.83;99921.75;7344126;19;19999;-79
2023/01/13 03:00:11;;;;;;;8.18;5.50;;;;;;;-6.10;74.34;99919.22;7346084;19;20292;-80
2023/01/13 03:02:37;;;;;;;4.53;2.70;;;;;;;-5.71;73.98;99909.59;7345999;19;20132;-76
2023/01/13 03:05:02;;;;;;;5.70;3.95;;;;;;;-5.85;73.90;99917.41;7345245;19;20639;-76
2023/01/13 03:08:06;;;;;;;4.03;2.75;;;;;;;-5.90;74.07;99921.78;7344145;19;20029;-80
2023/01/13 03:10:32;;;;;;;7.55;4.07;;;;;;;-5.72;73.47;99908.75;7347206;19;20024;-75
2023/01/13 03:13:08;;;;;;;5.57;3.85;;;;;;;-5.85;73.72;99907.03;7348325;19;20017;-75
2023/01/13 03:15:59;;;;;;;12.25;4.97;;;;;;;-5.85;73.71;99907.03;7345636;19;20338;-75
2023/01/13 03:18:48;;;;;;;4.32;2.65;;;;;;;-5.47;72.54;99893.09;7348388;19;20544;-74
2023/01/13 03:21:17;;;;;;;4.60;3.95;;;;;;;-5.69;72.64;99903.56;7345967;19;20020;-77
2023/01/13 03:24:05;;;;;;;7.63;3.67;;;;;;;-5.94;73.21;99901.88;7346162;19;20015;-74
2023/01/13 03:26:44;;;;;;;2.97;1.83;;;;;;;-5.76;72.87;99907.03;7347619;19;20109;-74
2023/01/13 03:29:19;;;;;;;10.20;5.80;;;;;;;-5.97;73.07;99910.53;7345956;19;20011;-73
2023/01/13 03:31:52;;;;;;;6.97;5.28;;;;;;;-5.75;72.95;99908.75;7347260;19;20034;-76
2023/01/13 03:34:21;;;;;;;10.30;5.68;;;;;;;-5.97;73.17;99902.75;7345114;19;20134;-77
2023/01/13 03:36:50;;;;;;;10.65;5.18;;;;;;;-6.13;73.75;99895.00;7349159;19;19999;-78
2023/01/13 03:39:21;;;;;;;4.20;2.75;;;;;;;-5.87;73.25;99899.22;7344785;19;20024;-74
2023/01/13 03:42:00;;;;;;;6.70;4.45;;;;;;;-5.78;73.26;99888.00;7346051;19;20690;-74
2023/01/13 03:44:32;;;;;;;6.68;4.82;;;;;;;-5.97;73.25;99894.09;7348635;19;20090;-74
2023/01/13 03:47:06;;;;;;;6.07;4.43;;;;;;;-5.92;73.10;99889.78;7350967;19;20011;-75
2023/01/13 03:49:40;;;;;;;4.50;2.58;;;;;;;-5.96;73.45;99906.22;7348322;19;20162;-73
2023/01/13 03:52:08;;;;;;;5.20;3.75;;;;;;;-5.78;72.98;99895.78;7347726;19;20488;-77
2023/01/13 03:54:41;;;;;;;12.48;4.63;;;;;;;-6.09;73.64;99888.91;7346058;19;20491;-73
2023/01/13 03:57:11;;;;;;;16.50;5.55;;;;;;;-6.08;73.86;99909.69;7347127;19;20007;-73
2023/01/13 03:59:40;;;;;;;6.10;3.95;;;;;;;-5.87;73.68;99916.56;7349901;19;20341;-70
2023/01/13 04:02:17;;;;;;;5.57;3.75;;;;;;;-5.90;73.55;99914.00;7347552;19;20022;-72
2023/01/13 04:04:57;;;;;;;5.80;4.15;;;;;;;-5.56;73.42;99900.06;7348781;19;20014;-72
2023/01/13 04:07:56;;;;;;;7.07;4.20;;;;;;;-5.62;72.99;99915.66;7348138;19;20005;-73
2023/01/13 04:10:33;;;;;;;3.97;2.75;;;;;;;-5.70;73.20;99896.63;7346039;19;20026;-73
2023/01/13 04:13:04;;;;;;;3.00;2.05;;;;;;;-5.83;72.81;99901.84;7346984;19;20365;-74
2023/01/13 04:15:33;;;;;;;4.57;2.53;;;;;;;-5.88;73.00;99896.72;7344393;19;20032;-74
2023/01/13 04:18:07;;;;;;;7.50;4.47;;;;;;;-6.06;73.46;99901.91;7346906;19;19999;-75
2023/01/13 04:20:32;;;;;;;5.90;3.72;;;;;;;-5.83;73.26;99900.09;7347445;19;20049;-73
2023/01/13 04:22:56;;;;;;;6.88;4.90;;;;;;;-5.82;73.16;99911.34;7347316;19;20006;-72
2023/01/13 04:25:21;;;;;;;6.88;4.60;;;;;;;-5.89;73.08;99913.16;7345992;19;20082;-75
2023/01/13 04:27:45;;;;;;;9.10;4.13;;;;;;;-5.76;72.93;99917.44;7347655;19;20361;-73
2023/01/13 04:30:11;;;;;;;6.07;4.10;;;;;;;-5.77;72.76;99909.63;7348596;19;20027;-72
2023/01/13 04:32:35;;;;;;;4.72;3.50;;;;;;;-5.85;72.91;99918.28;7346886;19;20475;-71
2023/01/13 04:35:00;;;;;;;5.10;3.22;;;;;;;-6.00;73.66;99913.16;7346508;19;20457;-71
2023/01/13 04:37:24;;;;;;;4.15;3.60;;;;;;;-5.98;73.71;99915.75;7344908;19;20013;-71
2023/01/13 04:39:49;;;;;;;3.10;1.63;;;;;;;-5.88;73.79;99925.25;7346996;19;20017;-73
2023/01/13 04:42:14;;;;;;;3.25;2.75;;;;;;;-5.72;73.58;99924.31;7344465;19;20037;-74
2023/01/13 04:44:38;;;;;;;6.72;4.10;;;;;;;-5.78;73.34;99924.34;7347517;19;20014;-73
2023/01/13 04:47:04;;;;;;;6.60;4.82;;;;;;;-5.65;72.58;99920.88;7348460;19;20003;-73
2023/01/13 04:49:29;;;;;;;3.78;2.45;;;;;;;-5.71;72.81;99922.59;7345141;19;20027;-73
2023/01/13 04:51:53;;;;;;;4.68;3.70;;;;;;;-5.87;73.08;99916.56;7345806;19;20006;-73
2023/01/13 04:54:18;;;;;;;6.93;3.92;;;;;;;-5.89;73.19;99915.75;7343044;19;20020;-72
2023/01/13 04:56:43;;;;;;;7.22;3.95;;;;;;;-5.77;73.17;99910.50;7345898;19;20465;-73
2023/01/13 04:59:12;;;;;;;7.05;4.40;;;;;;;-5.92;73.23;99914.00;7343896;19;20058;-74
2023/01/13 05:01:37;;;;;;;12.07;4.18;;;;;;;-5.70;73.15;99917.41;7344432;19;20082;-72
2023/01/13 05:04:02;;;;;;;8.82;4.72;;;;;;;-5.82;72.94;99917.41;7346280;19;20035;-73
2023/01/13 05:06:27;;;;;;;5.90;4.03;;;;;;;-5.98;73.23;99926.13;7344658;19;20011;-72
2023/01/13 05:08:51;;;;;;;3.58;2.70;;;;;;;-5.63;72.83;99928.63;7345858;19;20019;-73
2023/01/13 05:17:00;;;;;;;6.20;4.28;;;;;;;-5.91;73.35;99933.03;7346104;19;20102;-72
2023/01/13 05:19:30;;;;;;;9.68;5.38;;;;;;;-6.08;74.08;99937.34;7347756;19;20039;-72
2023/01/13 05:27:22;;;;;;;6.78;4.43;;;;;;;-5.93;73.56;99930.44;7347941;19;20347;-72
2023/01/13 05:29:48;;;;;;;8.45;4.43;;;;;;;-5.82;73.60;99935.59;7348651;19;20337;-71
2023/01/13 05:32:13;;;;;;;4.20;3.33;;;;;;;-5.73;73.44;99932.97;7345586;19;20019;-71
2023/01/13 05:34:37;;;;;;;6.88;4.15;;;;;;;-5.85;73.54;99948.56;7346620;19;20015;-72
2023/01/13 05:37:04;;;;;;;10.15;5.05;;;;;;;-5.74;73.05;99930.38;7344673;19;20021;-71
2023/01/13 05:43:18;;;;;;;7.43;4.22;;;;;;;-5.82;73.55;99945.09;7346273;19;20014;-71
2023/01/13 05:44:56;;;;;;;5.00;3.33;;;;;;;-5.73;73.13;99945.09;7348695;19;20343;-71
2023/01/13 05:47:21;;;;;;;6.47;3.92;;;;;;;-5.74;73.17;99941.63;7349407;19;20002;-72
2023/01/13 05:49:45;;;;;;;5.65;3.85;;;;;;;-5.55;72.73;99942.47;7348232;19;20026;-71
2023/01/13 05:52:10;;;;;;;7.80;3.92;;;;;;;-5.54;72.66;99941.63;7349748;19;20070;-71
2023/01/13 05:54:35;;;;;;;6.25;3.95;;;;;;;-5.67;72.71;99938.19;7346129;19;20018;-72
2023/01/13 05:56:59;;;;;;;9.20;4.50;;;;;;;-5.74;72.97;99936.44;7345880;19;20449;-75
2023/01/13 05:59:24;;;;;;;9.90;5.65;;;;;;;-5.96;73.61;99940.81;7346008;19;20074;-75
2023/01/13 06:01:49;;;;;;;10.25;4.57;;;;;;;-5.78;73.47;99939.91;7348712;19;20018;-74
2023/01/13 06:04:14;;;;;;;8.20;5.22;;;;;;;-5.88;73.67;99933.88;7346331;19;20010;-75
2023/01/13 06:06:38;;;;;;;9.60;6.00;;;;;;;-6.02;74.00;99939.97;7346804;19;20019;-76
2023/01/13 06:09:03;;;;;;;4.50;2.78;;;;;;;-5.75;73.89;99932.09;7349192;19;20113;-74
2023/01/13 06:11:27;;;;;;;5.22;2.97;;;;;;;-5.65;73.24;99920.88;7344831;19;20003;-74
2023/01/13 06:13:52;;;;;;;8.02;3.90;;;;;;;-5.87;73.75;99907.03;7348031;19;20082;-77
2023/01/13 06:16:17;;;;;;;6.85;4.60;;;;;;;-5.61;73.26;99927.75;7348205;19;20011;-75
2023/01/13 06:18:41;;;;;;;9.77;4.45;;;;;;;-5.62;72.87;99927.75;7348874;19;20472;-74
2023/01/13 06:21:06;;;;;;;3.75;2.88;;;;;;;-5.56;72.76;99919.97;7347095;19;20058;-75
2023/01/13 06:23:33;;;;;;;8.88;4.85;;;;;;;-5.69;72.70;99929.53;7344782;19;20015;-75
2023/01/13 06:26:13;;;;;;;3.33;2.25;;;;;;;-5.60;72.67;99934.69;7351083;19;20011;-74
2023/01/13 06:28:37;;;;;;;2.67;2.47;;;;;;;-5.33;72.35;99949.34;7346775;19;20077;-75
2023/01/13 06:31:06;;;;;;;7.65;4.25;;;;;;;-5.54;71.95;99916.50;7347931;19;20011;-75
2023/01/13 06:33:44;;;;;;;6.90;4.38;;;;;;;-5.88;72.70;99927.84;7347003;19;20019;-74
2023/01/13 06:36:15;;;;;;;5.68;3.17;;;;;;;-5.52;72.52;99925.13;7346756;19;20022;-75
2023/01/13 06:38:44;;;;;;;4.43;3.30;;;;;;;-5.33;71.84;99922.50;7350347;19;20022;-74
2023/01/13 06:41:09;;;;;;;9.73;4.85;;;;;;;-5.56;72.03;99939.03;7346014;19;20003;-75
2023/01/13 06:43:34;;;;;;;8.60;4.28;;;;;;;-5.60;72.30;99929.50;7350702;19;20014;-75
2023/01/13 06:46:00;;;;;;;7.35;4.00;;;;;;;-5.93;73.03;99924.38;7350475;19;20062;-73
2023/01/13 06:48:31;;;;;;;6.18;4.90;;;;;;;-5.98;73.64;99928.72;7351717;19;20021;-75
2023/01/13 06:50:56;;;;;;;14.32;5.90;;;;;;;-6.02;73.99;99927.84;7350708;19;20010;-75
2023/01/13 06:53:20;;;;;;;9.13;5.05;;;;;;;-5.89;74.19;99927.00;7353910;19;20010;-74
2023/01/13 06:55:46;;;;;;;4.00;2.75;;;;;;;-5.67;73.84;99927.78;7347390;19;20019;-73
2023/01/13 06:58:10;;;;;;;5.63;3.50;;;;;;;-5.42;72.90;99919.94;7351791;19;20022;-75
2023/01/13 07:00:36;;;;;;;8.80;3.10;;;;;;;-5.46;72.72;99928.59;7355066;19;20025;-75
2023/01/13 07:03:18;;;;;;;9.55;5.35;;;;;;;-5.68;72.89;99917.41;7352744;19;20035;-75
2023/01/13 07:05:52;;;;;;;6.18;3.72;;;;;;;-5.40;72.29;99915.59;7353358;19;20088;-75
2023/01/13 07:08:17;;;;;;;7.95;4.53;;;;;;;-5.59;72.32;99930.38;7352461;19;20742;-75
2023/01/13 07:10:41;;;;;;;4.60;3.20;;;;;;;-5.56;72.38;99917.38;7352393;19;20492;-74
2023/01/13 07:15:53;;;;;;;4.43;3.15;;;;;;;-5.66;72.54;99923.47;7353736;19;20017;-75
2023/01/13 07:18:19;;;;;;;4.93;3.38;;;;;;;-5.44;72.03;99929.47;7352097;19;20040;-74
2023/01/13 07:20:50;;;;;;;7.25;4.45;;;;;;;-5.29;72.32;99922.47;7351857;19;20014;-75
2023/01/13 07:23:15;;;;;;;2.83;1.58;;;;;;;-5.67;72.20;99916.53;7352566;19;20027;-74
2023/01/13 07:25:40;;;;;;;5.95;2.72;;;;;;;-5.60;72.45;99923.44;7351893;19;20049;-75
2023/01/13 07:28:04;;;;;;;5.72;3.85;;;;;;;-5.57;71.96;99939.88;7351714;19;20006;-75
2023/01/13 07:30:29;;;;;;;4.80;3.13;;;;;;;-5.75;72.98;99939.91;7349027;19;20010;-75
2023/01/13 07:32:54;;;;;;;10.93;5.20;;;;;;;-5.87;72.62;99951.16;7352877;19;20017;-73
2023/01/13 07:35:21;;;;;;;3.33;2.47;;;;;;;-5.57;72.38;99945.09;7349100;19;20010;-75
2023/01/13 07:37:47;;;;;;;3.63;3.00;;;;;;;-5.77;72.91;99946.84;7349963;19;20074;-75
2023/01/13 07:40:12;;;;;;;7.97;4.30;;;;;;;-5.82;72.96;99971.06;7351473;19;20017;-75
2023/01/13 07:45:20;;;;;;;6.10;4.50;;;;;;;-5.68;73.00;99964.16;7353002;19;20015;-73
2023/01/13 07:47:49;;;;;;;10.25;3.35;;;;;;;-5.60;73.04;99965.84;7349365;19;20025;-74
2023/01/13 07:50:14;;;;;;;4.25;2.35;;;;;;;-5.45;72.74;99958.91;7353092;19;20022;-75
2023/01/13 07:52:38;;;;;;;4.90;2.83;;;;;;;-5.14;71.73;99953.63;7348818;19;20090;-75
2023/01/13 07:55:03;;;;;;;8.13;5.18;;;;;;;-5.46;71.35;99962.38;7349052;19;20033;-75
2023/01/13 07:57:28;;;;;;;4.40;2.47;;;;;;;-5.27;71.15;99957.13;7350218;19;20019;-75
2023/01/13 07:59:54;;;;;;;7.40;4.25;;;;;;;-5.30;70.68;99946.72;7350592;19;20055;-74
2023/01/13 08:02:19;;;;;;;9.77;5.85;;;;;;;-5.60;71.03;99955.47;7350416;19;20014;-76
2023/01/13 08:04:43;;;;;;;4.43;3.10;;;;;;;-5.43;71.09;99958.03;7348953;19;20023;-76
2023/01/13 08:07:08;;;;;;;7.88;3.25;;;;;;;-5.30;70.98;99954.53;7352456;19;20018;-75
2023/01/13 08:09:33;;;;;;;5.95;3.75;;;;;;;-5.32;70.68;99945.03;7355178;19;20018;-75
2023/01/13 08:14:41;;;;;;;3.65;2.67;;;;;;;-5.57;71.48;99944.22;7349170;19;20023;-76
2023/01/13 08:17:08;;;;;;;9.13;5.00;;;;;;;-5.54;71.18;99946.81;7349105;19;20006;-74
2023/01/13 08:19:33;;;;;;;3.85;2.78;;;;;;;-5.48;71.46;99951.97;7345923;19;20074;-73
2023/01/13 08:21:58;;;;;;;7.18;4.50;;;;;;;-5.66;71.61;99955.50;7348367;19;20023;-73
2023/01/13 08:24:22;;;;;;;6.57;4.05;;;;;;;-5.58;71.85;99951.13;7346504;19;20006;-74
2023/01/13 08:26:47;;;;;;;4.97;2.50;;;;;;;-5.52;71.62;99958.91;7344607;19;20006;-74
2023/01/13 08:29:12;;;;;;;6.40;3.78;;;;;;;-5.78;72.24;99952.91;7347163;19;20339;-74
2023/01/13 08:31:36;;;;;;;5.45;3.42;;;;;;;-5.52;72.39;99953.72;7348349;19;20010;-74
2023/01/13 08:34:01;;;;;;;5.53;3.63;;;;;;;-5.72;72.43;99955.47;7346198;19;20832;-73
2023/01/13 08:36:25;;;;;;;6.75;4.18;;;;;;;-5.74;72.69;99959.81;7349046;19;20022;-73
2023/01/13 08:38:50;;;;;;;8.85;4.97;;;;;;;-5.66;72.35;99950.28;7348149;19;20019;-74
2023/01/13 08:41:53;;;;;;;7.53;3.90;;;;;;;-5.69;72.71;99950.28;7350057;19;20102;-74
2023/01/13 08:44:00;;;;;;;3.03;2.53;;;;;;;-5.48;72.38;99951.97;7348416;19;20477;-75
2023/01/13 08:46:25;;;;;;;7.13;4.78;;;;;;;-5.51;72.06;99945.06;7350534;19;20437;-73
2023/01/13 08:48:49;;;;;;;7.53;3.72;;;;;;;-5.35;71.96;99950.22;7349259;19;20018;-74
2023/01/13 08:51:14;;;;;;;3.38;2.33;;;;;;;-5.28;71.50;99936.34;7347393;19;20032;-74
2023/01/13 08:53:39;;;;;;;4.45;3.08;;;;;;;-5.59;72.29;99945.94;7350370;19;20010;-74
2023/01/13 08:56:11;;;;;;;3.22;2.47;;;;;;;-5.49;72.35;99939.84;7348179;19;20022;-73
2023/01/13 08:58:36;;;;;;;2.15;1.42;;;;;;;-5.28;71.69;99933.72;7349190;19;20018;-75
2023/01/13 09:01:05;;;;;;;6.28;3.80;;;;;;;-5.37;72.60;99947.63;7345902;19;20017;-73
2023/01/13 09:03:29;;;;;;;8.25;5.13;;;;;;;-5.49;72.18;99947.66;7349278;19;20014;-75
2023/01/13 09:05:54;;;;;;;9.10;5.07;;;;;;;-5.32;71.82;99932.91;7342372;19;20092;-74
2023/01/13 09:08:19;;;;;;;8.77;4.90;;;;;;;-5.54;72.27;99939.03;7348486;19;20771;-74
2023/01/13 09:10:44;;;;;;;8.25;4.97;;;;;;;-5.59;72.86;99931.22;7345892;19;20418;-72
2023/01/13 09:13:12;;;;;;;6.90;4.05;;;;;;;-5.45;72.92;99928.59;7344711;19;20343;-71
2023/01/13 09:15:42;;;;;;;6.78;4.13;;;;;;;-5.61;72.91;99925.16;7344449;19;20078;-73
2023/01/13 09:18:07;;;;;;;5.40;4.35;;;;;;;-5.53;72.90;99920.81;7345177;19;20018;-73
2023/01/13 09:20:32;;;;;;;8.88;4.55;;;;;;;-5.55;72.86;99932.09;7345993;19;20017;-71
2023/01/13 09:22:56;;;;;;;11.00;5.10;;;;;;;-5.42;72.39;99918.22;7346633;19;20027;-72
2023/01/13 09:25:21;;;;;;;5.38;2.90;;;;;;;-5.35;72.13;99908.66;7348242;19;20010;-74
2023/01/13 09:27:46;;;;;;;6.75;4.25;;;;;;;-5.53;72.59;99913.00;7350098;19;20084;-75
2023/01/13 09:30:10;;;;;;;9.50;4.68;;;;;;;-5.62;72.70;99914.78;7349205;19;20014;-74
2023/01/13 09:32:37;;;;;;;5.63;3.33;;;;;;;-5.53;73.35;99915.63;7346586;19;20018;-74
2023/01/13 09:35:02;;;;;;;7.03;3.25;;;;;;;-5.46;72.88;99915.63;7347612;19;20014;-74
2023/01/13 09:37:34;;;;;;;8.40;5.72;;;;;;;-5.54;73.26;99907.84;7345760;19;20037;-74
2023/01/13 09:40:00;;;;;;;10.45;5.32;;;;;;;-5.62;73.57;99896.59;7348804;19;20015;-74
2023/01/13 09:45:13;;;;;;;9.05;6.10;;;;;;;-5.47;73.62;99900.91;7348564;19;20070;-74
2023/01/13 09:48:04;;;;;;;7.45;4.30;;;;;;;-5.55;73.96;99894.00;7344134;19;20019;-74
2023/01/13 09:50:52;;;;;;;7.93;3.97;;;;;;;-5.44;73.88;99898.31;7344957;19;20360;-73
2023/01/13 09:53:27;;;;;;;5.45;3.65;;;;;;;-5.30;73.39;99904.28;7344334;19;20018;-74
2023/01/13 09:55:51;;;;;;;;;;;;;;;-5.28;73.02;99898.22;7340661;19;20046;-73
2023/01/13 09:58:17;;;;;;;;;;;;;;;-5.01;72.38;99893.78;7344746;19;19914;-74
2023/01/13 10:00:50;;;;;;;8.38;5.15;;;;;;;-5.47;72.97;99893.09;7345026;19;19930;-73
2023/01/13 10:03:41;;;;;;;7.80;3.83;;;;;;;-5.54;73.16;99907.84;7342147;19;20074;-73
2023/01/13 10:06:20;;;;;;;2.53;2.33;;;;;;;-5.21;73.03;99933.72;7342889;19;20019;-73
2023/01/13 10:08:46;;;;;;;5.28;3.92;;;;;;;-5.38;72.87;99908.66;7344287;19;20351;-71
2023/01/13 10:14:25;;;;;;;4.57;3.50;;;;;;;-5.25;72.48;99907.75;7346478;19;20007;-73
2023/01/13 10:17:27;;;;;;;9.23;5.45;;;;;;;-5.37;72.76;99910.38;7349152;19;20018;-74
2023/01/13 10:20:11;;;;;;;4.28;3.63;;;;;;;-5.35;73.01;99899.13;7355754;19;20014;-73
2023/01/13 10:23:21;;;;;;;9.55;3.22;;;;;;;-5.21;73.03;99901.69;7359693;19;20006;-74
2023/01/13 10:26:38;;;;;;;11.38;3.33;;;;;;;-5.29;72.95;99904.28;7354414;19;20429;-73
2023/01/13 10:29:20;;;;;;;6.65;4.43;;;;;;;-5.36;73.07;99896.53;7354615;19;20092;-74
2023/01/13 10:31:45;;;;;;;14.82;5.47;;;;;;;-5.34;73.12;99905.19;7356316;19;20074;-74
2023/01/13 10:34:10;;;;;;;7.47;3.90;;;;;;;-5.15;72.52;99894.72;7355132;19;20023;-72
2023/01/13 10:36:35;;;;;;;17.65;6.07;;;;;;;-5.38;72.78;99908.66;7359399;19;20006;-73
2023/01/13 10:39:15;;;;;;;6.90;3.28;;;;;;;-5.29;72.99;99914.69;7361106;19;20034;-73
2023/01/13 10:41:39;;;;;;;2.08;1.45;;;;;;;-5.17;72.59;99913.78;7361950;19;20011;-73
2023/01/13 10:44:14;;;;;;;6.30;3.17;;;;;;;-4.97;72.32;99919.78;7358461;19;20025;-71
2023/01/13 10:46:51;;;;;;;5.60;2.40;;;;;;;-4.85;71.68;99905.81;7359236;19;20490;-74
2023/01/13 10:49:35;;;;;;;2.58;1.73;;;;;;;-4.93;71.52;99907.59;7356006;19;20015;-74
2023/01/13 10:52:01;;;;;;;7.47;5.20;;;;;;;-5.28;71.77;99911.22;7356581;19;20010;-74
2023/01/13 10:54:26;;;;;;;4.70;2.95;;;;;;;-5.11;71.60;99905.97;7354130;19;20021;-74
2023/01/13 10:57:26;;;;;;;3.08;2.13;;;;;;;-5.18;72.17;99914.63;7354920;19;20016;-72
2023/01/13 10:59:51;;;;;;;6.10;3.67;;;;;;;-5.08;71.62;99929.34;7357993;19;20054;-72
2023/01/13 11:02:19;;;;;;;8.90;5.25;;;;;;;-5.30;72.21;99904.28;7358107;19;20037;-72
2023/01/13 11:04:53;;;;;;;5.03;3.47;;;;;;;-5.13;72.15;99903.38;7361021;19;20609;-72
2023/01/13 11:07:33;;;;;;;3.33;2.03;;;;;;;-5.06;72.13;99900.72;7360140;19;20002;-73
2023/01/13 11:10:22;;;;;;;10.07;5.18;;;;;;;-5.39;72.78;99907.78;7360031;19;20010;-72
2023/01/13 11:12:52;;;;;;;3.20;2.33;;;;;;;-5.28;72.78;99902.56;7358055;19;20007;-72
2023/01/13 11:15:22;;;;;;;6.47;4.20;;;;;;;-5.12;72.59;99896.44;7356279;19;20014;-72
2023/01/13 11:18:12;;;;;;;11.80;5.90;;;;;;;-5.26;73.36;99911.22;7356796;19;20007;-71
2023/01/13 11:20:41;;;;;;;5.13;4.07;;;;;;;-5.08;72.27;99898.16;7356680;19;20535;-72
2023/01/13 11:23:20;;;;;;;11.77;5.38;;;;;;;-5.26;72.63;99900.81;7363298;19;20025;-72
2023/01/13 11:25:51;;;;;;;6.70;4.15;;;;;;;-5.26;72.74;99906.88;7358249;19;20007;-72
2023/01/13 11:28:39;;;;;;;5.30;3.17;;;;;;;-5.01;72.52;99906.78;7353603;19;20018;-72
2023/01/13 11:31:10;;;;;;;6.18;3.35;;;;;;;-5.20;72.66;99917.28;7352679;19;20014;-75
2023/01/13 11:33:45;;;;;;;9.82;5.00;;;;;;;-5.13;72.50;99903.38;7351998;19;20026;-74
2023/01/13 11:36:19;;;;;;;4.93;3.08;;;;;;;-5.08;72.43;99908.56;7351861;19;20010;-74
2023/01/13 11:38:48;;;;;;;5.25;2.97;;;;;;;-5.05;72.49;99912.84;7348492;19;20010;-74
2023/01/13 11:41:18;;;;;;;10.02;5.07;;;;;;;-5.30;72.86;99915.53;7350447;19;20014;-75
2023/01/13 11:43:54;;;;;;;5.38;3.60;;;;;;;-5.05;72.45;99918.91;7354677;19;20038;-76
2023/01/13 11:46:23;;;;;;;9.10;6.15;;;;;;;-5.25;72.65;99925.94;7352745;19;20041;-75
2023/01/13 11:48:50;;;;;;;5.80;2.83;;;;;;;-5.10;72.45;99910.28;7353385;19;20022;-75
2023/01/13 11:51:28;;;;;;;4.18;2.90;;;;;;;-5.20;72.71;99912.06;7352323;19;20007;-74
2023/01/13 11:54:04;;;;;;;7.97;4.78;;;;;;;-5.35;72.97;99917.31;7347239;19;20014;-73
2023/01/13 11:57:05;;;;;;;5.28;3.75;;;;;;;-5.12;72.58;99919.84;7347631;19;20006;-73
2023/01/13 11:59:42;;;;;;;3.28;2.53;;;;;;;-5.25;73.31;99925.94;7345857;19;20089;-74
2023/01/13 12:02:21;;;;;;;9.80;5.53;;;;;;;-5.41;73.74;99926.84;7345324;19;20046;-73
2023/01/13 12:05:06;;;;;;;10.65;6.22;;;;;;;-5.39;74.17;99922.50;7345691;19;20011;-74
2023/01/13 12:07:33;;;;;;;;;;;;;;;-5.37;74.68;99915.59;7347028;19;20103;-74
2023/01/13 12:10:29;;;;;;;12.80;4.85;;;;;;;-5.28;74.29;99920.75;7344907;19;19979;-74
2023/01/13 12:13:21;;;;;;;11.50;5.50;;;;;;;-5.47;75.29;99930.34;7346228;19;20007;-74
2023/01/13 12:16:13;;;;;;;9.02;5.78;;;;;;;-5.37;75.43;99931.16;7342377;19;20011;-74
2023/01/13 12:19:06;;;;;;;8.50;5.00;;;;;;;-5.30;75.38;99930.28;7344281;19;20014;-74
2023/01/13 12:21:37;;;;;;;11.60;5.75;;;;;;;-5.31;75.47;99929.44;7346583;19;20084;-75
2023/01/13 12:24:20;;;;;;;6.75;3.63;;;;;;;-5.19;74.87;99929.38;7346839;19;20545;-74
2023/01/13 12:26:56;;;;;;;7.25;4.63;;;;;;;-5.07;74.57;99941.44;7346475;19;20006;-75